Time;durP1;ratioP1;P1;durP2;ratioP2;P2;SDS_P1;SDS_P2;PMS_P1;PMS_P2;Temp;Humidity;BMP_temperature;BMP_pressure;BME280_temperature;BME280_humidity;BME280_pressure;Samples;Min_cycle;Max_cycle;Signal;HPM_P1;HPM_P2
2023/12/05 00:02:23;;;;;;;14.57;6.60;;;-4.90;99.90;;;;;;4935365;29;20580;-85
2023/12/05 00:04:51;;;;;;;18.00;7.53;;;-4.90;99.90;;;;;;4935245;29;20185;-82
2023/12/05 00:07:20;;;;;;;21.08;6.50;;;-5.00;99.90;;;;;;4935641;29;20240;-83
2023/12/05 00:09:47;;;;;;;19.65;7.88;;;-5.00;99.90;;;;;;4935745;29;20186;-83
2023/12/05 00:12:15;;;;;;;19.92;7.72;;;-5.00;99.90;;;;;;4918166;29;20196;-83
2023/12/05 00:14:42;;;;;;;20.10;7.53;;;-5.00;99.90;;;;;;4935032;29;20656;-83
2023/12/05 00:17:10;;;;;;;16.27;6.90;;;-5.00;99.90;;;;;;4918015;29;20200;-83
2023/12/05 00:19:37;;;;;;;13.95;5.85;;;-5.00;99.90;;;;;;4935153;29;20284;-83
2023/12/05 00:22:05;;;;;;;22.48;6.95;;;-5.10;99.90;;;;;;4934982;29;20185;-84
2023/12/05 00:24:32;;;;;;;16.27;6.65;;;-5.00;99.90;;;;;;4917970;29;20201;-83
2023/12/05 00:27:00;;;;;;;17.45;6.70;;;-5.00;99.90;;;;;;4917621;29;20213;-82
2023/12/05 00:29:27;;;;;;;17.40;6.75;;;-5.00;99.90;;;;;;4934842;29;20213;-83
2023/12/05 00:31:55;;;;;;;21.33;6.35;;;-4.90;99.90;;;;;;4917762;29;20212;-83
2023/12/05 00:34:22;;;;;;;15.88;6.47;;;-4.90;99.90;;;;;;4934865;29;20193;-83
2023/12/05 00:36:50;;;;;;;18.52;6.13;;;-4.90;99.90;;;;;;4934649;29;20213;-82
2023/12/05 00:39:17;;;;;;;26.63;6.80;;;-5.00;99.90;;;;;;4934773;29;20228;-83
2023/12/05 00:41:46;;;;;;;16.75;5.07;;;-5.00;99.90;;;;;;4934799;29;20197;-81
2023/12/05 00:44:14;;;;;;;18.60;6.00;;;-5.00;99.90;;;;;;4934814;29;20201;-83
2023/12/05 00:46:41;;;;;;;19.85;6.85;;;-5.00;99.90;;;;;;4918074;29;20588;-83
2023/12/05 00:49:09;;;;;;;15.90;6.22;;;-5.00;99.90;;;;;;4917872;29;20193;-84
2023/12/05 00:51:36;;;;;;;16.17;6.10;;;-5.00;99.90;;;;;;4917689;29;20225;-83
2023/12/05 00:54:04;;;;;;;17.92;6.80;;;-5.10;99.90;;;;;;4933165;29;20186;-83
2023/12/05 00:56:32;;;;;;;17.83;6.60;;;-5.00;99.90;;;;;;4917115;29;20659;-83
2023/12/05 00:58:59;;;;;;;12.25;5.28;;;-4.90;99.90;;;;;;4934253;29;20185;-83
2023/12/05 01:01:27;;;;;;;13.43;5.75;;;-5.00;99.90;;;;;;4933047;29;20196;-83
2023/12/05 01:03:56;;;;;;;20.05;5.75;;;-5.00;99.90;;;;;;4916717;29;20262;-83
2023/12/05 01:06:24;;;;;;;14.65;5.55;;;-5.10;99.90;;;;;;4935421;29;20687;-82
2023/12/05 01:08:52;;;;;;;15.35;5.82;;;-5.10;99.90;;;;;;4953487;29;20212;-83
2023/12/05 01:11:19;;;;;;;16.75;5.90;;;-5.10;99.90;;;;;;4951887;29;20193;-83
2023/12/05 01:13:46;;;;;;;19.92;6.22;;;-5.10;99.90;;;;;;4953206;29;20302;-84
2023/12/05 01:16:14;;;;;;;18.40;6.57;;;-5.10;99.90;;;;;;4951771;29;20199;-84
2023/12/05 01:18:45;;;;;;;16.30;5.85;;;-5.10;99.90;;;;;;4952961;29;20204;-83
2023/12/05 01:21:12;;;;;;;18.35;6.63;;;-5.00;99.90;;;;;;4953159;29;20244;-83
2023/12/05 01:23:41;;;;;;;19.95;6.80;;;-5.10;99.90;;;;;;4952312;29;20236;-82
2023/12/05 01:26:08;;;;;;;13.60;5.22;;;-5.00;99.90;;;;;;4936296;29;20223;-82
2023/12/05 01:28:35;;;;;;;17.65;6.13;;;-5.10;99.90;;;;;;4935828;29;20588;-83
2023/12/05 01:31:03;;;;;;;13.30;5.97;;;-5.00;99.90;;;;;;4953037;29;20197;-83
2023/12/05 01:33:31;;;;;;;14.80;5.72;;;-5.00;99.90;;;;;;4952900;29;20747;-82
2023/12/05 01:35:59;;;;;;;13.25;5.45;;;-5.00;99.90;;;;;;4953011;29;20181;-83
2023/12/05 01:38:26;;;;;;;17.17;6.10;;;-5.00;99.90;;;;;;4952775;29;20560;-82
2023/12/05 01:40:54;;;;;;;5.20;2.30;;;-4.90;99.90;;;;;;4952937;29;20212;-82
2023/12/05 01:43:21;;;;;;;10.75;4.45;;;-5.00;99.90;;;;;;4935924;29;20188;-84
2023/12/05 01:45:49;;;;;;;12.25;4.53;;;-5.00;99.90;;;;;;4952862;29;20212;-83
2023/12/05 01:48:17;;;;;;;12.18;5.25;;;-5.00;99.90;;;;;;4951237;29;20189;-81
2023/12/05 01:50:46;;;;;;;11.60;4.40;;;-5.00;99.90;;;;;;4935398;29;20220;-83
2023/12/05 01:53:15;;;;;;;17.55;5.43;;;-5.00;99.90;;;;;;4952483;29;20215;-84
2023/12/05 01:55:43;;;;;;;10.50;4.03;;;-5.00;99.90;;;;;;4952413;29;20193;-82
2023/12/05 01:58:11;;;;;;;7.30;2.95;;;-5.00;99.90;;;;;;4950903;29;20189;-83
2023/12/05 02:00:40;;;;;;;12.25;4.78;;;-5.00;99.90;;;;;;4951011;29;20193;-83
2023/12/05 02:03:08;;;;;;;13.23;4.82;;;-5.00;99.90;;;;;;4935278;29;20212;-82
2023/12/05 02:05:36;;;;;;;9.65;3.78;;;-5.00;99.90;;;;;;4952646;29;20185;-83
2023/12/05 02:08:06;;;;;;;15.45;4.57;;;-5.00;99.90;;;;;;4952245;29;20567;-82
2023/12/05 02:10:33;;;;;;;11.75;4.55;;;-5.00;99.90;;;;;;4952123;29;20642;-82
2023/12/05 02:13:00;;;;;;;15.35;5.00;;;-5.00;99.90;;;;;;4934863;29;20196;-82
2023/12/05 02:15:28;;;;;;;10.38;4.40;;;-5.00;99.90;;;;;;4950936;28;20220;-84
2023/12/05 02:18:03;;;;;;;17.02;6.32;;;-5.00;99.90;;;;;;4966658;28;20203;-84
2023/12/05 02:20:36;;;;;;;17.17;5.60;;;-4.90;99.90;;;;;;4952120;29;20228;-82
2023/12/05 02:23:13;;;;;;;14.55;5.40;;;-4.90;99.90;;;;;;4950773;29;20197;-83
2023/12/05 02:25:56;;;;;;;18.92;5.78;;;-4.90;99.90;;;;;;4952387;29;20177;-84
2023/12/05 02:28:27;;;;;;;14.30;4.88;;;-4.90;99.90;;;;;;4950824;29;20192;-84
2023/12/05 02:30:55;;;;;;;14.38;4.82;;;-4.90;99.90;;;;;;4951744;29;20688;-82
2023/12/05 02:33:22;;;;;;;16.40;5.55;;;-5.00;99.90;;;;;;4951649;29;20240;-83
2023/12/05 02:36:11;;;;;;;14.20;5.10;;;-4.90;99.90;;;;;;4951776;29;20194;-83
2023/12/05 02:39:11;;;;;;;10.82;4.60;;;-4.80;99.90;;;;;;4952028;29;20187;-84
2023/12/05 02:41:43;;;;;;;16.45;5.03;;;-4.80;99.90;;;;;;5278028;23;20327;-93
2023/12/05 02:44:14;;;;;;;17.17;5.93;;;-4.90;99.90;;;;;;4975503;28;20172;-93
2023/12/05 02:46:43;;;;;;;12.00;5.32;;;-5.00;99.90;;;;;;4958131;28;20772;-92
2023/12/05 02:49:11;;;;;;;14.95;6.05;;;-4.90;99.90;;;;;;4960034;28;20188;-93
2023/12/05 02:51:41;;;;;;;15.10;5.95;;;-4.80;99.90;;;;;;4960613;28;20191;-92
2023/12/05 02:54:08;;;;;;;16.42;6.00;;;-4.90;99.90;;;;;;4961139;28;20203;-91
2023/12/05 02:56:36;;;;;;;12.30;4.80;;;-4.90;99.90;;;;;;4961094;28;20195;-93
2023/12/05 02:59:04;;;;;;;14.82;5.40;;;-5.00;99.90;;;;;;4960276;28;20200;-93
2023/12/05 03:01:42;;;;;;;13.98;5.38;;;-5.00;99.90;;;;;;4975404;28;20223;-93
2023/12/05 03:04:09;;;;;;;16.15;5.65;;;-4.90;99.90;;;;;;4957762;28;20184;-92
2023/12/05 03:06:37;;;;;;;17.35;7.32;;;-5.00;99.90;;;;;;4959071;28;20291;-94
2023/12/05 03:09:05;;;;;;;15.20;6.85;;;-5.10;99.90;;;;;;4941698;28;20195;-94
2023/12/05 03:11:32;;;;;;;14.75;5.35;;;-5.00;99.90;;;;;;4943269;28;20188;-93
2023/12/05 03:14:01;;;;;;;19.10;6.93;;;-5.00;99.90;;;;;;4958798;28;20196;-93
2023/12/05 03:16:28;;;;;;;17.15;6.15;;;-4.90;99.90;;;;;;4957073;28;20254;-93
2023/12/05 03:18:56;;;;;;;19.35;6.20;;;-4.90;99.90;;;;;;4961072;28;20745;-92
2023/12/05 03:21:24;;;;;;;18.92;6.80;;;-5.00;99.90;;;;;;4961051;28;20219;-92
2023/12/05 03:23:51;;;;;;;16.13;7.15;;;-4.90;99.90;;;;;;4942711;28;20207;-91
2023/12/05 03:26:20;;;;;;;17.85;6.80;;;-4.90;99.90;;;;;;4961037;28;20207;-90
2023/12/05 03:28:49;;;;;;;16.60;7.03;;;-4.90;99.90;;;;;;4964381;28;20561;-92
2023/12/05 03:31:17;;;;;;;17.23;6.93;;;-4.90;99.90;;;;;;4945502;28;20200;-92
2023/12/05 03:33:45;;;;;;;19.23;7.85;;;-4.90;99.90;;;;;;4963284;28;20192;-92
2023/12/05 03:36:14;;;;;;;19.33;6.43;;;-5.00;99.90;;;;;;4962863;28;20188;-92
2023/12/05 03:38:42;;;;;;;16.92;6.70;;;-5.00;99.90;;;;;;4963930;28;20239;-92
2023/12/05 03:41:09;;;;;;;20.42;7.80;;;-4.90;99.90;;;;;;4943862;29;20267;-93
2023/12/05 03:43:37;;;;;;;22.13;7.22;;;-4.90;99.90;;;;;;4959360;28;20197;-93
2023/12/05 03:46:04;;;;;;;17.00;6.68;;;-4.90;99.90;;;;;;4940201;29;20211;-93
2023/12/05 03:48:32;;;;;;;18.10;6.88;;;-4.90;99.90;;;;;;4941389;29;20193;-94
2023/12/05 03:50:59;;;;;;;19.15;8.07;;;-4.90;99.90;;;;;;4925591;29;20204;-94
2023/12/05 03:53:27;;;;;;;16.88;6.47;;;-4.80;99.90;;;;;;4925414;29;20682;-92
2023/12/05 03:55:55;;;;;;;19.20;7.45;;;-4.90;99.90;;;;;;4922030;29;20196;-93
2023/12/05 03:58:22;;;;;;;18.55;7.13;;;-5.00;99.90;;;;;;4924878;29;20714;-91
2023/12/05 04:00:50;;;;;;;15.15;7.05;;;-4.90;99.90;;;;;;4945686;29;20197;-93
2023/12/05 04:03:19;;;;;;;17.80;6.82;;;-4.90;99.90;;;;;;4928040;29;20213;-93
2023/12/05 04:05:46;;;;;;;17.10;7.07;;;-4.90;99.90;;;;;;4925563;29;20256;-92
2023/12/05 04:08:14;;;;;;;19.98;7.78;;;-4.90;99.90;;;;;;4926254;29;20217;-91
2023/12/05 04:10:41;;;;;;;17.45;7.53;;;-4.80;99.90;;;;;;4943330;29;20189;-93
2023/12/05 04:13:08;;;;;;;16.88;6.68;;;-4.90;99.90;;;;;;4946427;29;20232;-93
2023/12/05 04:15:36;;;;;;;20.75;7.57;;;-4.90;99.90;;;;;;4961823;29;20196;-92
2023/12/05 04:18:04;;;;;;;19.60;6.75;;;-4.90;99.90;;;;;;4946160;29;20252;-92
2023/12/05 04:20:31;;;;;;;31.05;6.90;;;-4.90;99.90;;;;;;4946913;29;20198;-93
2023/12/05 04:22:59;;;;;;;19.95;7.95;;;-4.90;99.90;;;;;;4930610;29;20265;-93
2023/12/05 04:25:26;;;;;;;18.42;6.90;;;-4.90;99.90;;;;;;4931344;29;20193;-94
2023/12/05 04:27:53;;;;;;;20.35;7.15;;;-4.80;99.90;;;;;;4930362;29;20288;-93
2023/12/05 04:30:21;;;;;;;16.42;6.95;;;-4.80;99.90;;;;;;4931357;29;20677;-95
2023/12/05 04:32:49;;;;;;;17.38;6.85;;;-4.90;99.90;;;;;;4930307;29;20204;-94
2023/12/05 04:35:17;;;;;;;16.95;7.13;;;-4.90;99.90;;;;;;4946536;29;20192;-93
2023/12/05 04:37:44;;;;;;;16.67;6.63;;;-4.80;99.90;;;;;;4928839;29;20197;-94
2023/12/05 04:40:12;;;;;;;23.13;8.52;;;-4.80;99.90;;;;;;4963120;29;20193;-94
2023/12/05 04:42:40;;;;;;;20.73;7.00;;;-4.80;99.90;;;;;;4963478;29;20239;-94
2023/12/05 04:45:08;;;;;;;17.98;6.57;;;-4.80;99.90;;;;;;4935141;29;20197;-94
2023/12/05 04:47:35;;;;;;;18.50;6.97;;;-4.80;99.90;;;;;;4949060;29;20643;-94
2023/12/05 04:50:03;;;;;;;18.42;7.15;;;-4.90;99.90;;;;;;4933746;29;20193;-94
2023/12/05 04:52:31;;;;;;;18.40;6.78;;;-4.90;99.90;;;;;;4934694;29;20220;-94
2023/12/05 04:54:59;;;;;;;19.20;6.35;;;-4.90;99.90;;;;;;4934720;29;20185;-94
2023/12/05 04:57:27;;;;;;;15.73;5.75;;;-4.90;99.90;;;;;;4951257;29;20181;-94
2023/12/05 04:59:55;;;;;;;19.13;6.78;;;-4.90;99.90;;;;;;4950397;29;20236;-94
2023/12/05 05:02:23;;;;;;;15.70;6.32;;;-4.90;99.90;;;;;;4947949;29;20662;-94
2023/12/05 05:04:51;;;;;;;17.45;6.47;;;-4.90;99.90;;;;;;4949069;29;20240;-94
2023/12/05 05:07:18;;;;;;;15.07;6.28;;;-4.90;99.90;;;;;;4949796;29;20263;-93
2023/12/05 05:09:46;;;;;;;19.85;6.72;;;-4.80;99.90;;;;;;4934172;29;20196;-93
2023/12/05 05:12:14;;;;;;;17.27;6.38;;;-4.80;99.90;;;;;;4933865;29;20224;-93
2023/12/05 05:14:41;;;;;;;15.27;6.75;;;-4.70;99.90;;;;;;4934845;29;20216;-94
2023/12/05 05:17:09;;;;;;;15.98;7.22;;;-4.60;99.90;;;;;;4933572;29;20193;-92
2023/12/05 05:19:36;;;;;;;16.45;6.68;;;-4.70;99.90;;;;;;4934730;29;20287;-94
2023/12/05 05:22:04;;;;;;;14.43;5.65;;;-4.70;99.90;;;;;;4934409;29;20196;-93
2023/12/05 05:24:32;;;;;;;12.50;5.47;;;-4.80;99.90;;;;;;4949105;29;20188;-93
2023/12/05 05:27:00;;;;;;;15.68;5.32;;;-4.90;99.90;;;;;;4936732;28;20220;-93
2023/12/05 05:29:27;;;;;;;16.02;5.63;;;-4.80;99.90;;;;;;4949913;29;20200;-94
2023/12/05 05:31:56;;;;;;;14.68;5.53;;;-4.80;99.90;;;;;;4930376;29;20203;-94
2023/12/05 05:34:24;;;;;;;16.08;5.32;;;-4.80;99.90;;;;;;4949380;29;20189;-93
2023/12/05 05:36:52;;;;;;;13.10;5.95;;;-4.80;99.90;;;;;;4949021;29;20196;-94
2023/12/05 05:39:20;;;;;;;14.20;6.07;;;-4.80;99.90;;;;;;4932758;29;20220;-94
2023/12/05 05:41:48;;;;;;;16.73;5.53;;;-4.80;99.90;;;;;;4932109;29;20232;-96
2023/12/05 05:44:15;;;;;;;16.52;6.13;;;-4.70;99.90;;;;;;4948544;29;20188;-95
2023/12/05 05:46:42;;;;;;;13.43;5.32;;;-4.70;99.90;;;;;;4929394;29;20265;-95
2023/12/05 05:49:10;;;;;;;14.10;4.80;;;-4.70;99.90;;;;;;4932548;29;20189;-94
2023/12/05 05:51:37;;;;;;;13.93;4.50;;;-4.70;99.90;;;;;;4964501;29;20195;-94
2023/12/05 05:54:05;;;;;;;12.15;4.55;;;-4.70;99.90;;;;;;4930987;29;20198;-96
2023/12/05 05:56:41;;;;;;;13.45;4.80;;;-4.70;99.90;;;;;;4929182;29;20283;-95
2023/12/05 05:59:09;;;;;;;15.48;5.30;;;-4.70;99.90;;;;;;4929458;29;20180;-95
2023/12/05 06:01:36;;;;;;;11.68;5.00;;;-4.70;99.90;;;;;;4945949;29;20184;-94
2023/12/05 06:04:04;;;;;;;9.73;4.13;;;-4.70;99.90;;;;;;4934364;29;20268;-95
2023/12/05 06:06:32;;;;;;;10.48;4.22;;;-4.70;99.90;;;;;;4946536;29;20185;-95
2023/12/05 06:08:59;;;;;;;12.55;4.85;;;-4.80;99.90;;;;;;4961223;29;20216;-94
2023/12/05 06:11:27;;;;;;;11.20;4.07;;;-4.70;99.90;;;;;;4961857;29;20196;-95
2023/12/05 06:13:54;;;;;;;10.40;4.47;;;-4.80;99.90;;;;;;4956371;28;20228;-94
2023/12/05 06:16:22;;;;;;;9.38;4.20;;;-4.80;99.90;;;;;;4944791;29;20203;-94
2023/12/05 06:18:49;;;;;;;9.25;4.07;;;-4.90;99.90;;;;;;4962366;29;20192;-95
2023/12/05 06:21:17;;;;;;;11.70;4.30;;;-4.90;99.90;;;;;;4946434;29;20192;-96
2023/12/05 06:23:44;;;;;;;11.65;3.85;;;-4.90;99.90;;;;;;4947955;29;20244;-94
2023/12/05 06:26:12;;;;;;;9.55;3.97;;;-4.90;99.90;;;;;;4932516;29;20188;-95
2023/12/05 06:28:40;;;;;;;10.50;4.40;;;-4.90;99.90;;;;;;4947721;29;20208;-95
2023/12/05 06:31:08;;;;;;;11.82;4.18;;;-5.00;99.90;;;;;;4933184;29;20196;-96
2023/12/05 06:33:35;;;;;;;10.43;4.18;;;-5.00;99.90;;;;;;4948457;29;20219;-93
2023/12/05 06:36:04;;;;;;;10.57;3.50;;;-5.10;99.90;;;;;;4930817;29;20209;-95
2023/12/05 06:38:31;;;;;;;11.48;3.70;;;-5.10;99.90;;;;;;4962302;29;20200;-96
2023/12/05 06:40:58;;;;;;;11.57;3.47;;;-5.10;99.90;;;;;;4930956;29;20228;-95
2023/12/05 06:43:26;;;;;;;11.95;4.65;;;-5.10;99.90;;;;;;4932354;29;20228;-95
2023/12/05 06:45:53;;;;;;;9.98;3.78;;;-5.10;99.90;;;;;;4931689;29;20850;-93
2023/12/05 06:48:21;;;;;;;12.30;4.15;;;-5.10;99.90;;;;;;4942233;28;20212;-94
2023/12/05 06:50:48;;;;;;;9.88;4.22;;;-5.20;99.90;;;;;;4976338;28;20196;-94
2023/12/05 06:53:15;;;;;;;9.85;3.60;;;-5.20;99.90;;;;;;4947731;29;20205;-94
2023/12/05 06:55:43;;;;;;;8.68;3.35;;;-5.40;99.90;;;;;;4965793;28;20191;-95
2023/12/05 06:58:10;;;;;;;9.57;3.60;;;-5.40;99.90;;;;;;4968390;28;20564;-95
2023/12/05 07:00:38;;;;;;;10.35;3.90;;;-5.40;99.90;;;;;;4966405;28;20518;-94
2023/12/05 07:03:05;;;;;;;7.60;3.60;;;-5.40;99.90;;;;;;4984190;28;20231;-94
2023/12/05 07:05:33;;;;;;;9.95;3.92;;;-5.40;99.90;;;;;;4967742;28;20206;-94
2023/12/05 07:08:01;;;;;;;11.57;3.80;;;-5.50;99.90;;;;;;4983107;28;20218;-95
2023/12/05 07:10:28;;;;;;;10.73;3.58;;;-5.40;99.90;;;;;;4967738;28;20677;-95
2023/12/05 07:12:56;;;;;;;9.27;3.80;;;-5.50;99.90;;;;;;4983571;28;20260;-95
2023/12/05 07:15:23;;;;;;;7.53;3.22;;;-5.60;99.90;;;;;;4966547;28;20196;-96
2023/12/05 07:17:50;;;;;;;10.48;3.65;;;-5.60;99.90;;;;;;4980651;28;20283;-95
2023/12/05 07:20:18;;;;;;;9.63;3.20;;;-5.50;99.90;;;;;;4984357;28;20279;-95
2023/12/05 07:22:46;;;;;;;11.05;3.92;;;-5.50;99.90;;;;;;4983457;28;20196;-94
2023/12/05 07:25:13;;;;;;;7.50;3.38;;;-5.60;99.90;;;;;;4965932;28;20200;-95
2023/12/05 07:27:41;;;;;;;9.18;3.20;;;-5.70;99.90;;;;;;4966904;28;20247;-95
2023/12/05 07:30:09;;;;;;;10.45;3.83;;;-5.70;99.90;;;;;;4967958;28;20196;-94
2023/12/05 07:32:36;;;;;;;8.23;3.10;;;-5.60;99.90;;;;;;4983788;28;20628;-94
2023/12/05 07:35:04;;;;;;;6.95;2.85;;;-5.60;99.90;;;;;;4983866;28;20268;-95
2023/12/05 07:37:32;;;;;;;6.50;2.60;;;-5.70;99.90;;;;;;4982896;28;20195;-96
2023/12/05 07:40:00;;;;;;;7.50;3.40;;;-5.80;99.90;;;;;;4965281;28;20538;-96
2023/12/05 07:42:27;;;;;;;9.10;2.80;;;-5.80;99.90;;;;;;4982951;28;20295;-95
2023/12/05 07:44:55;;;;;;;7.53;3.10;;;-5.70;99.90;;;;;;4965866;28;20207;-96
2023/12/05 07:47:23;;;;;;;6.90;2.90;;;-5.70;99.90;;;;;;4979531;28;20196;-96
2023/12/05 07:49:51;;;;;;;5.72;2.38;;;-5.70;99.90;;;;;;4980526;28;20231;-95
2023/12/05 07:52:18;;;;;;;9.70;2.85;;;-5.90;99.90;;;;;;4983913;28;20215;-96
2023/12/05 07:54:46;;;;;;;9.57;3.00;;;-5.90;99.90;;;;;;4983533;28;20762;-96
2023/12/05 07:57:15;;;;;;;8.32;3.03;;;-5.80;99.90;;;;;;4982985;28;20287;-95
2023/12/05 07:59:43;;;;;;;7.90;3.38;;;-5.80;99.90;;;;;;4983320;28;20191;-95
2023/12/05 08:02:10;;;;;;;8.10;2.97;;;-5.90;99.90;;;;;;4982574;28;20215;-95
2023/12/05 08:04:37;;;;;;;7.38;2.80;;;-5.90;99.90;;;;;;4965543;28;21002;-95
2023/12/05 08:07:05;;;;;;;7.22;2.95;;;-5.80;99.90;;;;;;4966359;28;20267;-95
2023/12/05 08:09:32;;;;;;;5.78;2.90;;;-5.80;99.90;;;;;;4981880;28;20292;-95
2023/12/05 08:12:00;;;;;;;8.80;3.20;;;-5.80;99.90;;;;;;4981453;28;20195;-96
2023/12/05 08:14:27;;;;;;;9.27;3.08;;;-5.80;99.90;;;;;;4985217;28;20188;-95
2023/12/05 08:16:55;;;;;;;7.07;2.78;;;-5.70;99.90;;;;;;4984731;28;20275;-95
2023/12/05 08:19:22;;;;;;;9.40;2.95;;;-5.70;99.90;;;;;;4966218;28;20199;-94
2023/12/05 08:21:50;;;;;;;10.63;3.20;;;-5.60;99.90;;;;;;4984768;28;20196;-95
2023/12/05 08:24:17;;;;;;;9.00;3.47;;;-5.60;99.90;;;;;;4965683;28;20292;-93
2023/12/05 08:26:45;;;;;;;6.05;2.60;;;-5.60;99.90;;;;;;4981834;28;20219;-96
2023/12/05 08:29:13;;;;;;;7.22;2.88;;;-5.60;99.90;;;;;;4984547;28;20211;-96
2023/12/05 08:31:40;;;;;;;7.93;3.08;;;-5.60;99.90;;;;;;4985367;28;20196;-96
2023/12/05 08:34:08;;;;;;;8.70;3.22;;;-5.60;99.90;;;;;;4968136;28;20581;-96
2023/12/05 08:36:36;;;;;;;6.70;3.38;;;-5.50;99.90;;;;;;4984419;28;20295;-96
2023/12/05 08:39:03;;;;;;;8.38;3.08;;;-5.50;99.90;;;;;;4969226;28;20191;-95
2023/12/05 08:41:31;;;;;;;9.00;3.00;;;-5.60;99.90;;;;;;4981419;28;20290;-95
2023/12/05 08:43:58;;;;;;;7.22;2.92;;;-5.60;99.90;;;;;;4954019;28;20258;-95
2023/12/05 08:46:26;;;;;;;8.05;3.30;;;-5.60;99.90;;;;;;4983710;28;20250;-96
2023/12/05 08:48:54;;;;;;;7.63;3.33;;;-5.60;99.90;;;;;;4968502;28;20212;-96
2023/12/05 08:51:22;;;;;;;6.95;3.20;;;-5.60;99.90;;;;;;4984491;28;20197;-96
2023/12/05 08:53:49;;;;;;;10.55;3.50;;;-5.60;99.90;;;;;;4968167;28;20558;-96
2023/12/05 08:56:17;;;;;;;9.40;3.83;;;-5.60;99.90;;;;;;4984482;28;20188;-95
2023/12/05 08:58:44;;;;;;;8.95;3.45;;;-5.60;99.90;;;;;;4968251;28;20192;-95
2023/12/05 09:01:12;;;;;;;7.53;3.00;;;-5.60;99.90;;;;;;4980766;28;20738;-96
2023/12/05 09:03:39;;;;;;;8.80;3.75;;;-5.70;99.90;;;;;;4981968;28;20192;-96
2023/12/05 09:06:07;;;;;;;7.68;2.85;;;-5.70;99.90;;;;;;4982300;28;20277;-96
2023/12/05 09:08:35;;;;;;;9.38;3.45;;;-5.80;99.90;;;;;;4963921;28;20211;-95
2023/12/05 09:11:02;;;;;;;11.25;4.00;;;-5.90;99.90;;;;;;4982387;28;20195;-96
2023/12/05 09:13:30;;;;;;;8.95;3.05;;;-5.70;99.90;;;;;;4981537;28;20202;-96
2023/12/05 09:15:57;;;;;;;11.00;3.78;;;-5.70;99.90;;;;;;4983854;28;20247;-96
2023/12/05 09:18:25;;;;;;;7.45;3.28;;;-5.60;99.90;;;;;;4965289;28;20196;-96
2023/12/05 09:20:53;;;;;;;16.52;4.75;;;-5.60;99.90;;;;;;4981055;28;20200;-96
2023/12/05 09:23:21;;;;;;;12.45;3.78;;;-5.60;99.90;;;;;;4966507;28;20196;-96
2023/12/05 09:25:48;;;;;;;12.48;3.30;;;-5.60;99.90;;;;;;4983239;28;20267;-95
2023/12/05 09:28:16;;;;;;;7.50;3.40;;;-5.60;99.90;;;;;;4967697;28;20840;-95
2023/12/05 09:30:43;;;;;;;6.22;2.92;;;-5.60;99.90;;;;;;4981909;28;20188;-95
2023/12/05 09:33:11;;;;;;;5.65;2.95;;;-5.60;99.90;;;;;;4966584;28;20198;-96
2023/12/05 09:35:38;;;;;;;6.97;3.17;;;-5.60;99.90;;;;;;4983950;28;20651;-96
2023/12/05 09:38:07;;;;;;;9.63;3.00;;;-5.70;99.90;;;;;;4963210;28;20216;-96
2023/12/05 09:40:35;;;;;;;8.65;3.20;;;-5.70;99.90;;;;;;4981067;28;20188;-96
2023/12/05 09:43:05;;;;;;;8.95;3.28;;;-5.70;99.90;;;;;;4983636;28;20188;-95
2023/12/05 09:45:39;;;;;;;6.38;3.20;;;-5.70;99.90;;;;;;4984727;28;20191;-96
2023/12/05 09:48:09;;;;;;;6.05;2.63;;;-5.60;99.90;;;;;;4983138;28;20207;-96
2023/12/05 09:50:37;;;;;;;7.85;2.95;;;-5.70;99.90;;;;;;4981415;28;20215;-95
2023/12/05 09:53:09;;;;;;;8.98;3.08;;;-5.70;99.90;;;;;;4981752;28;20188;-95
2023/12/05 09:55:39;;;;;;;7.28;3.22;;;-5.70;99.90;;;;;;4982010;28;20287;-94
2023/12/05 09:58:09;;;;;;;8.63;3.10;;;-5.70;99.90;;;;;;4982702;28;20202;-95
2023/12/05 10:00:36;;;;;;;10.35;3.10;;;-5.70;99.90;;;;;;4981972;28;20668;-96
2023/12/05 10:03:06;;;;;;;8.32;3.55;;;-5.70;99.90;;;;;;4983922;28;20203;-95
2023/12/05 10:05:37;;;;;;;7.00;3.10;;;-5.60;99.90;;;;;;4984777;28;20219;-94
2023/12/05 10:08:05;;;;;;;6.07;2.42;;;-5.60;99.90;;;;;;4983632;28;20270;-95
2023/12/05 10:10:34;;;;;;;7.07;3.28;;;-5.60;99.90;;;;;;4968085;28;20200;-96
2023/12/05 10:13:02;;;;;;;8.05;3.17;;;-5.60;99.90;;;;;;4967978;28;20646;-95
2023/12/05 10:15:30;;;;;;;10.07;3.28;;;-5.50;99.90;;;;;;4985161;28;20662;-96
2023/12/05 10:17:59;;;;;;;7.65;3.00;;;-5.40;99.90;;;;;;4985194;28;20187;-95
2023/12/05 10:20:26;;;;;;;5.55;2.65;;;-5.40;99.90;;;;;;4967709;28;20188;-95
2023/12/05 10:22:54;;;;;;;6.25;3.00;;;-5.30;99.90;;;;;;4967719;28;20188;-96
2023/12/05 10:25:22;;;;;;;9.35;3.53;;;-5.30;99.90;;;;;;4984643;28;20196;-96
2023/12/05 10:28:05;;;;;;;8.45;3.60;;;-5.40;99.90;;;;;;4984326;28;20192;-96
2023/12/05 10:30:33;;;;;;;8.45;3.78;;;-5.30;99.90;;;;;;4984686;28;20172;-96
2023/12/05 10:33:14;;;;;;;10.35;3.60;;;-5.20;99.90;;;;;;4983912;28;20223;-96
2023/12/05 10:35:44;;;;;;;8.27;3.33;;;-5.10;99.90;;;;;;4967707;28;20949;-96
2023/12/05 10:38:17;;;;;;;6.03;2.22;;;-5.10;99.90;;;;;;4966796;28;20188;-96
2023/12/05 10:41:01;;;;;;;5.63;3.20;;;-5.20;99.90;;;;;;4982961;28;20227;-96
2023/12/05 10:43:28;;;;;;;6.60;2.88;;;-5.20;99.90;;;;;;4951098;28;20227;-96
2023/12/05 10:45:57;;;;;;;6.13;2.53;;;-5.20;99.90;;;;;;4968361;28;20761;-95
2023/12/05 10:48:25;;;;;;;7.70;3.42;;;-5.20;99.90;;;;;;4984781;28;20764;-96
2023/12/05 10:50:53;;;;;;;9.98;3.42;;;-5.10;99.90;;;;;;4967035;28;20192;-96
2023/12/05 10:53:21;;;;;;;7.65;3.40;;;-5.10;99.90;;;;;;4982077;28;20191;-96
2023/12/05 10:55:48;;;;;;;6.28;3.10;;;-5.20;99.90;;;;;;4951259;28;20207;-96
2023/12/05 10:58:16;;;;;;;8.07;3.03;;;-5.10;99.90;;;;;;4983658;28;20199;-96
2023/12/05 11:00:45;;;;;;;7.57;3.05;;;-5.10;99.90;;;;;;4960106;28;20203;-95
2023/12/05 11:03:14;;;;;;;6.00;2.88;;;-5.20;99.90;;;;;;4989318;28;20195;-95
2023/12/05 11:05:41;;;;;;;7.95;3.15;;;-5.10;99.90;;;;;;4985743;28;20190;-96
2023/12/05 11:08:09;;;;;;;7.85;2.80;;;-5.20;99.90;;;;;;4985521;28;20209;-96
2023/12/05 11:10:38;;;;;;;7.22;2.85;;;-5.20;99.90;;;;;;4989269;28;20187;-96
2023/12/05 11:13:07;;;;;;;8.13;3.30;;;-5.20;99.90;;;;;;4968746;28;20187;-96
2023/12/05 11:15:39;;;;;;;9.25;3.05;;;-5.10;99.90;;;;;;4983678;28;20190;-96
2023/12/05 11:18:37;;;;;;;8.45;3.22;;;-5.00;99.90;;;;;;4984102;28;20179;-96
2023/12/05 11:21:20;;;;;;;7.03;2.95;;;-5.00;99.90;;;;;;4961190;28;20227;-96
2023/12/05 11:24:13;;;;;;;7.38;3.00;;;-4.90;99.90;;;;;;4973316;28;20183;-95
2023/12/05 11:27:02;;;;;;;7.05;2.78;;;-4.90;99.90;;;;;;4990398;28;20238;-96
2023/12/05 11:29:52;;;;;;;9.50;3.15;;;-4.80;99.90;;;;;;4988568;28;20301;-96
2023/12/05 11:32:39;;;;;;;5.35;2.55;;;-4.70;99.90;;;;;;4991034;28;20251;-96
2023/12/05 11:35:16;;;;;;;7.28;3.42;;;-4.60;99.90;;;;;;4985882;28;20192;-96
2023/12/05 11:38:00;;;;;;;7.60;3.47;;;-4.50;99.90;;;;;;4969693;28;20183;-96
2023/12/05 11:40:28;;;;;;;6.47;2.65;;;-4.60;99.90;;;;;;4971982;28;20184;-96
2023/12/05 11:43:10;;;;;;;6.85;2.97;;;-4.70;99.90;;;;;;4966555;28;20184;-96
2023/12/05 11:45:41;;;;;;;8.15;2.65;;;-4.80;99.90;;;;;;4965980;28;20195;-96
2023/12/05 11:48:13;;;;;;;10.48;3.13;;;-4.90;99.90;;;;;;4968544;28;20183;-96
2023/12/05 11:50:43;;;;;;;7.68;3.03;;;-5.00;99.90;;;;;;4971588;28;20653;-95
2023/12/05 11:53:15;;;;;;;5.10;2.50;;;-5.20;99.90;;;;;;4972211;28;20198;-96
2023/12/05 11:55:47;;;;;;;9.73;2.70;;;-5.20;99.90;;;;;;4987148;28;20195;-96
2023/12/05 11:58:28;;;;;;;6.25;2.60;;;-5.20;99.90;;;;;;4986891;28;20180;-96
2023/12/05 12:01:09;;;;;;;7.03;2.70;;;-5.20;99.90;;;;;;4986396;28;20184;-96
2023/12/05 12:03:48;;;;;;;6.60;2.40;;;-5.40;99.90;;;;;;4984275;28;20184;-96
2023/12/05 12:06:23;;;;;;;6.90;2.40;;;-5.40;99.90;;;;;;4988453;28;20179;-96
2023/12/05 12:08:53;;;;;;;7.00;2.28;;;-5.40;99.90;;;;;;4987720;28;20236;-95
2023/12/05 12:11:22;;;;;;;5.85;2.58;;;-5.40;99.90;;;;;;4993221;28;20188;-96
2023/12/05 12:13:51;;;;;;;5.88;2.17;;;-5.40;99.90;;;;;;4977558;28;20526;-96
2023/12/05 12:16:20;;;;;;;6.60;2.45;;;-5.30;99.90;;;;;;4971952;28;20255;-96
2023/12/05 12:18:49;;;;;;;5.78;2.22;;;-5.30;99.90;;;;;;4973275;28;20198;-96
2023/12/05 12:21:29;;;;;;;5.07;2.13;;;-5.30;99.90;;;;;;4970081;28;20638;-96
2023/12/05 12:23:58;;;;;;;4.80;2.00;;;-5.30;99.90;;;;;;4981887;28;20218;-96
2023/12/05 12:26:27;;;;;;;7.18;2.67;;;-5.40;99.90;;;;;;4981792;28;20187;-95
2023/12/05 12:29:04;;;;;;;4.65;1.88;;;-5.40;99.90;;;;;;4983795;28;20246;-96
2023/12/05 12:31:31;;;;;;;5.60;2.90;;;-5.40;99.90;;;;;;4983290;28;20216;-96
2023/12/05 12:33:59;;;;;;;3.72;1.83;;;-5.50;99.90;;;;;;4968638;28;20255;-96
2023/12/05 12:36:27;;;;;;;4.18;2.20;;;-5.50;99.90;;;;;;4982747;28;20287;-96
2023/12/05 12:38:56;;;;;;;7.68;2.10;;;-5.40;99.90;;;;;;4964348;28;20215;-96
2023/12/05 12:41:26;;;;;;;4.97;1.75;;;-5.40;99.90;;;;;;4965894;28;20270;-95
2023/12/05 12:43:54;;;;;;;8.07;2.28;;;-5.40;99.90;;;;;;4964866;28;20191;-96
2023/12/05 12:46:22;;;;;;;6.28;2.60;;;-5.50;99.90;;;;;;4980841;28;20195;-96
2023/12/05 12:48:50;;;;;;;6.93;2.15;;;-5.60;99.90;;;;;;4981366;28;20302;-95
2023/12/05 12:51:18;;;;;;;5.00;2.13;;;-5.60;99.90;;;;;;4980962;28;20557;-96